createdAt,value
2018-05-14T00:00:04.519Z,8.33
2018-05-14T00:02:32.110Z,8.10
2018-05-14T00:04:59.723Z,8.57
2018-05-14T00:07:27.306Z,8.17
2018-05-14T00:09:54.924Z,8.30
2018-05-14T00:12:22.506Z,7.40
2018-05-14T00:14:50.121Z,7.90
2018-05-14T00:17:18.470Z,7.13
2018-05-14T00:19:46.032Z,7.10
2018-05-14T00:22:13.624Z,8.00
2018-05-14T00:24:41.999Z,7.87
2018-05-14T00:27:09.581Z,8.03
2018-05-14T00:29:37.190Z,6.63
2018-05-14T00:32:04.799Z,8.13
2018-05-14T00:34:33.147Z,7.30
2018-05-14T00:37:00.745Z,7.57
2018-05-14T00:39:28.334Z,7.70
2018-05-14T00:41:55.927Z,8.80
2018-05-14T00:44:23.493Z,7.97
2018-05-14T00:46:51.154Z,7.67
2018-05-14T00:49:18.761Z,8.30
2018-05-14T00:51:46.327Z,9.70
2018-05-14T00:54:13.915Z,8.40
2018-05-14T00:56:41.470Z,9.60
2018-05-14T00:59:09.081Z,9.80
2018-05-14T01:01:37.406Z,9.17
2018-05-14T01:04:04.986Z,9.07
2018-05-14T01:06:32.561Z,9.50
2018-05-14T01:09:00.951Z,10.43
2018-05-14T01:11:29.302Z,9.07
2018-05-14T01:13:56.914Z,9.00
2018-05-14T01:16:24.505Z,9.03
2018-05-14T01:18:52.086Z,8.97
2018-05-14T01:21:19.693Z,9.83
2018-05-14T01:23:47.278Z,8.87
2018-05-14T01:26:14.858Z,9.10
2018-05-14T01:28:42.438Z,8.60
2018-05-14T01:31:10.023Z,8.93
2018-05-14T01:33:38.399Z,9.57
2018-05-14T01:36:06.774Z,8.63
2018-05-14T01:38:34.354Z,9.87
2018-05-14T01:41:01.970Z,8.93
2018-05-14T01:43:29.555Z,9.37
2018-05-14T01:45:57.906Z,9.73
2018-05-14T01:48:25.487Z,9.20
2018-05-14T01:50:53.094Z,9.60
2018-05-14T01:53:20.681Z,8.37
2018-05-14T01:55:48.271Z,8.30
2018-05-14T01:58:15.874Z,8.13
2018-05-14T02:00:43.429Z,8.97
2018-05-14T02:03:10.990Z,8.90
2018-05-14T02:05:38.576Z,8.17
2018-05-14T02:08:06.162Z,7.77
2018-05-14T02:10:33.750Z,7.87
2018-05-14T02:13:02.102Z,8.47
2018-05-14T02:15:29.702Z,8.10
2018-05-14T02:17:57.289Z,9.00
2018-05-14T02:20:24.858Z,9.90
2018-05-14T02:22:52.475Z,8.73
2018-05-14T02:25:20.817Z,7.60
2018-05-14T02:27:48.402Z,8.27
2018-05-14T02:30:15.967Z,7.27
2018-05-14T02:32:44.317Z,9.03
2018-05-14T02:35:11.895Z,8.27
2018-05-14T02:37:39.483Z,8.73
2018-05-14T02:40:07.838Z,8.67
2018-05-14T02:42:35.426Z,10.83
2018-05-14T02:45:03.006Z,8.80
2018-05-14T02:47:30.590Z,9.60
2018-05-14T02:49:58.198Z,8.57
2018-05-14T02:52:26.549Z,8.20
2018-05-14T02:54:54.158Z,8.20
2018-05-14T02:57:21.715Z,7.70
2018-05-14T02:59:49.326Z,7.73
2018-05-14T03:02:16.911Z,7.10
2018-05-14T03:04:44.587Z,9.10
2018-05-14T03:07:12.074Z,7.40
2018-05-14T03:09:39.661Z,7.97
2018-05-14T03:12:07.243Z,7.63
2018-05-14T03:14:34.830Z,7.60
2018-05-14T03:17:03.211Z,7.80
2018-05-14T03:19:31.534Z,8.63
2018-05-14T03:21:59.155Z,7.80
2018-05-14T03:24:27.478Z,8.20
2018-05-14T03:26:55.058Z,9.00
2018-05-14T03:29:22.647Z,7.97
2018-05-14T03:31:50.203Z,7.77
2018-05-14T03:34:17.787Z,7.93
2018-05-14T03:36:45.375Z,8.00
2018-05-14T03:39:13.729Z,8.93
2018-05-14T03:41:41.340Z,7.97
2018-05-14T03:44:08.934Z,8.17
2018-05-14T03:46:36.541Z,8.87
2018-05-14T03:49:04.122Z,9.60
2018-05-14T03:51:31.702Z,9.50
2018-05-14T03:53:59.326Z,8.90
2018-05-14T03:56:26.911Z,9.13
2018-05-14T03:59:06.314Z,9.23
2018-05-14T04:01:45.858Z,9.50
2018-05-14T04:04:25.162Z,10.27
2018-05-14T04:06:52.770Z,10.40
2018-05-14T04:09:20.356Z,9.67
2018-05-14T04:11:47.958Z,10.27
2018-05-14T04:14:16.282Z,10.70
2018-05-14T04:16:43.838Z,11.17
2018-05-14T04:19:12.294Z,9.93
2018-05-14T04:21:40.638Z,10.70
2018-05-14T04:24:08.251Z,10.00
2018-05-14T04:26:35.834Z,10.63
2018-05-14T04:29:03.415Z,9.53
2018-05-14T04:31:31.766Z,9.10
2018-05-14T04:33:59.350Z,8.37
2018-05-14T04:36:27.731Z,8.87
2018-05-14T04:38:56.085Z,9.43
2018-05-14T04:41:23.665Z,9.80
2018-05-14T04:43:52.010Z,9.63
2018-05-14T04:46:19.598Z,9.60
2018-05-14T04:48:47.987Z,12.37
2018-05-14T04:51:16.366Z,11.27
2018-05-14T04:53:44.750Z,12.20
2018-05-14T04:56:13.102Z,10.30
2018-05-14T04:58:40.718Z,10.70
2018-05-14T05:01:08.288Z,10.90
2018-05-14T05:03:35.898Z,10.47
2018-05-14T05:06:03.517Z,9.67
2018-05-14T05:08:31.074Z,9.47
2018-05-14T05:10:58.662Z,10.03
2018-05-14T05:13:26.218Z,9.30
2018-05-14T05:15:53.803Z,7.87
2018-05-14T05:18:21.387Z,8.70
2018-05-14T05:20:49.082Z,8.00
2018-05-14T05:23:16.650Z,9.17
2018-05-14T05:25:45.000Z,7.93
2018-05-14T05:28:13.407Z,8.50
2018-05-14T05:30:40.967Z,8.70
2018-05-14T05:33:08.585Z,8.80
2018-05-14T05:35:36.910Z,8.40
2018-05-14T05:38:04.496Z,9.40
2018-05-14T05:40:32.088Z,10.33
2018-05-14T05:43:00.441Z,10.63
2018-05-14T05:45:28.034Z,11.40
2018-05-14T05:47:56.358Z,11.23
2018-05-14T05:50:23.922Z,9.67
2018-05-14T05:52:51.538Z,11.53
2018-05-14T05:55:19.913Z,11.03
2018-05-14T05:57:48.321Z,11.73
2018-05-14T06:00:15.890Z,13.50
2018-05-14T06:02:43.483Z,11.53
2018-05-14T06:05:11.104Z,11.13
2018-05-14T06:07:38.695Z,11.90
2018-05-14T06:10:06.286Z,10.20
2018-05-14T06:12:33.878Z,11.50
2018-05-14T06:15:01.443Z,12.37
2018-05-14T06:17:29.035Z,13.47
2018-05-14T06:19:56.635Z,11.50
2018-05-14T06:22:25.056Z,12.00
2018-05-14T06:24:52.544Z,11.90
2018-05-14T06:27:20.159Z,12.73
2018-05-14T06:29:47.718Z,11.50
2018-05-14T06:32:15.277Z,11.47
2018-05-14T06:34:42.870Z,13.40
2018-05-14T06:37:10.455Z,11.73
2018-05-14T06:39:38.091Z,12.87
2018-05-14T06:42:05.659Z,11.83
2018-05-14T06:44:33.223Z,11.40
2018-05-14T06:47:00.846Z,13.30
2018-05-14T06:49:28.423Z,11.83
2018-05-14T06:51:56.042Z,12.30
2018-05-14T06:54:24.398Z,13.17
2018-05-14T06:56:51.987Z,11.87
2018-05-14T06:59:20.343Z,11.50
2018-05-14T07:01:47.954Z,11.60
2018-05-14T07:04:15.538Z,12.60
2018-05-14T07:06:44.084Z,11.33
2018-05-14T07:09:12.261Z,12.73
2018-05-14T07:11:39.848Z,11.77
2018-05-14T07:14:07.455Z,11.07
2018-05-14T07:16:35.048Z,12.10
2018-05-14T07:19:02.684Z,10.73
2018-05-14T07:21:31.035Z,10.53
2018-05-14T07:23:58.634Z,13.00
2018-05-14T07:26:26.231Z,11.30
2018-05-14T07:28:53.850Z,10.10
2018-05-14T07:31:22.409Z,9.70
2018-05-14T07:33:49.979Z,9.40
2018-05-14T07:36:17.601Z,8.00
2018-05-14T07:38:45.279Z,7.77
2018-05-14T07:41:12.849Z,6.97
2018-05-14T07:43:40.497Z,6.07
2018-05-14T07:46:08.330Z,5.90
2018-05-14T07:48:35.905Z,6.20
2018-05-14T07:51:03.670Z,7.10
2018-05-14T07:53:31.267Z,6.87
2018-05-14T07:55:58.824Z,6.10
2018-05-14T07:58:27.266Z,6.60
2018-05-14T08:00:54.851Z,6.77
2018-05-14T08:03:22.442Z,6.73
2018-05-14T08:05:50.125Z,5.40
2018-05-14T08:08:17.672Z,5.70
2018-05-14T08:10:45.424Z,6.37
2018-05-14T08:13:13.038Z,5.77
2018-05-14T08:15:40.622Z,6.27
2018-05-14T08:18:08.187Z,6.17
2018-05-14T08:20:35.802Z,5.57
2018-05-14T08:23:04.182Z,4.70
2018-05-14T08:25:32.621Z,6.20
2018-05-14T08:28:00.315Z,6.70
2018-05-14T08:30:27.904Z,7.87
2018-05-14T08:32:55.569Z,7.17
2018-05-14T08:35:23.145Z,7.68
2018-05-14T08:37:51.519Z,5.60
2018-05-14T08:40:19.871Z,6.23
2018-05-14T08:42:47.436Z,6.13
2018-05-14T08:45:15.083Z,6.60
2018-05-14T08:47:42.637Z,6.77
2018-05-14T08:50:10.254Z,7.20
2018-05-14T08:52:38.576Z,8.40
2018-05-14T08:55:06.206Z,8.13
2018-05-14T08:57:33.882Z,7.33
2018-05-14T09:00:01.472Z,7.20
2018-05-14T09:02:29.778Z,8.57
2018-05-14T09:04:57.358Z,8.80
2018-05-14T09:07:24.911Z,7.77
2018-05-14T09:09:52.518Z,8.20
2018-05-14T09:12:20.903Z,7.70
2018-05-14T09:14:48.481Z,8.30
2018-05-14T09:17:16.107Z,8.93
2018-05-14T09:19:44.466Z,10.00
2018-05-14T09:22:12.055Z,8.57
2018-05-14T09:24:40.456Z,9.17
2018-05-14T09:27:08.062Z,7.70
2018-05-14T09:29:35.650Z,9.77
2018-05-14T09:32:03.233Z,9.23
2018-05-14T09:34:30.814Z,9.73
2018-05-14T09:36:58.398Z,9.27
2018-05-14T09:39:26.758Z,8.90
2018-05-14T09:41:54.375Z,8.30
2018-05-14T09:44:21.968Z,9.87
2018-05-14T09:46:49.586Z,9.60
2018-05-14T09:49:17.151Z,11.07
2018-05-14T09:51:44.739Z,9.40
2018-05-14T09:54:13.058Z,9.63
2018-05-14T09:56:40.681Z,9.10
2018-05-14T09:59:09.715Z,9.50
2018-05-14T10:01:37.274Z,9.40
2018-05-14T10:04:04.870Z,9.90
2018-05-14T10:06:33.222Z,9.40
2018-05-14T10:09:00.815Z,10.30
2018-05-14T10:11:29.169Z,8.90
2018-05-14T10:13:56.794Z,10.37
2018-05-14T10:16:24.387Z,9.70
2018-05-14T10:18:52.036Z,9.70
2018-05-14T10:21:19.688Z,10.03
2018-05-14T10:23:47.277Z,9.73
2018-05-14T10:26:14.890Z,9.20
2018-05-14T10:28:42.451Z,9.30
2018-05-14T10:31:10.071Z,11.17
2018-05-14T10:33:37.634Z,10.60
2018-05-14T10:36:05.218Z,11.73
2018-05-14T10:38:33.602Z,12.00
2018-05-14T10:41:01.939Z,12.00
2018-05-14T10:43:29.556Z,13.37
2018-05-14T10:45:57.961Z,13.73
2018-05-14T10:48:25.551Z,13.13
2018-05-14T10:50:53.126Z,12.40
2018-05-14T10:53:21.596Z,11.70
2018-05-14T10:55:49.164Z,13.60
2018-05-14T10:58:16.774Z,12.70
2018-05-14T11:00:44.375Z,14.10
2018-05-14T11:03:11.998Z,15.07
2018-05-14T11:05:39.566Z,15.10
2018-05-14T11:08:07.176Z,15.30
2018-05-14T11:10:34.861Z,15.30
2018-05-14T11:13:03.139Z,16.37
2018-05-14T11:15:30.730Z,17.80
2018-05-14T11:17:58.322Z,18.43
2018-05-14T11:20:25.955Z,17.70
2018-05-14T11:22:54.286Z,17.27
2018-05-14T11:25:21.850Z,14.03
2018-05-14T11:27:49.471Z,14.57
2018-05-14T11:30:17.123Z,14.10
2018-05-14T11:32:45.502Z,15.77
2018-05-14T11:35:13.863Z,15.70
2018-05-14T11:37:41.482Z,17.73
2018-05-14T11:40:09.095Z,16.63
2018-05-14T11:42:36.693Z,14.33
2018-05-14T11:45:04.287Z,15.10
2018-05-14T11:47:31.886Z,17.20
2018-05-14T11:50:00.238Z,17.10
2018-05-14T11:52:27.879Z,14.20
2018-05-14T11:54:55.463Z,15.17
2018-05-14T11:57:23.062Z,16.10
2018-05-14T11:59:51.427Z,16.30
2018-05-14T12:02:19.806Z,16.43
2018-05-14T12:04:48.190Z,16.90
2018-05-14T12:07:16.545Z,16.27
2018-05-14T12:09:44.162Z,19.40
2018-05-14T12:12:11.849Z,19.10
2018-05-14T12:14:40.138Z,16.90
2018-05-14T12:17:07.713Z,14.33
2018-05-14T12:19:35.282Z,16.53
2018-05-14T12:22:03.663Z,16.17
2018-05-14T12:24:31.999Z,15.73
2018-05-14T12:26:59.597Z,15.27
2018-05-14T12:29:27.188Z,15.20
2018-05-14T12:31:54.780Z,15.10
2018-05-14T12:34:23.137Z,14.73
2018-05-14T12:36:50.734Z,14.30
2018-05-14T12:39:18.354Z,15.67
2018-05-14T12:41:45.923Z,15.70
2018-05-14T12:44:14.283Z,14.20
2018-05-14T12:46:41.850Z,15.37
2018-05-14T12:49:09.466Z,14.50
2018-05-14T12:51:37.030Z,15.13
2018-05-14T12:54:04.599Z,13.30
2018-05-14T12:56:32.202Z,13.67
2018-05-14T12:58:59.796Z,13.30
2018-05-14T13:01:27.376Z,12.97
2018-05-14T13:03:55.286Z,13.30
2018-05-14T13:06:22.880Z,12.87
2018-05-14T13:08:50.470Z,12.50
2018-05-14T13:11:18.057Z,12.67
2018-05-14T13:13:45.655Z,12.70
2018-05-14T13:16:14.047Z,13.23
2018-05-14T13:18:41.651Z,13.60
2018-05-14T13:21:09.226Z,14.60
2018-05-14T13:23:37.615Z,14.17
2018-05-14T13:26:05.982Z,14.07
2018-05-14T13:28:33.595Z,13.53
2018-05-14T13:31:01.170Z,13.13
2018-05-14T13:33:28.767Z,13.53
2018-05-14T13:35:57.130Z,12.27
2018-05-14T13:38:24.702Z,12.97
2018-05-14T13:40:52.325Z,12.80
2018-05-14T13:43:19.922Z,13.80
2018-05-14T13:45:47.542Z,14.87
2018-05-14T13:48:15.105Z,16.20
2018-05-14T13:50:42.670Z,17.17
2018-05-14T13:53:10.263Z,16.93
2018-05-14T13:55:37.827Z,17.83
2018-05-14T13:58:05.517Z,17.40
2018-05-14T14:00:33.069Z,17.37
2018-05-14T14:03:00.713Z,17.33
2018-05-14T14:05:28.278Z,14.73
2018-05-14T14:07:56.633Z,14.97
2018-05-14T14:10:24.198Z,15.00
2018-05-14T14:12:51.762Z,15.83
2018-05-14T14:15:19.410Z,13.20
2018-05-14T14:17:46.974Z,9.40
2018-05-14T14:20:14.538Z,9.53
2018-05-14T14:22:42.158Z,10.80
2018-05-14T14:25:09.757Z,14.63
2018-05-14T14:27:37.323Z,14.33
2018-05-14T14:30:04.999Z,15.27
2018-05-14T14:32:32.570Z,16.67
2018-05-14T14:35:00.927Z,15.30
2018-05-14T14:37:28.518Z,16.93
2018-05-14T14:39:56.874Z,17.67
2018-05-14T14:42:24.462Z,16.43
2018-05-14T14:44:52.820Z,13.63
2018-05-14T14:47:20.438Z,17.67
2018-05-14T14:49:48.037Z,17.77
2018-05-14T14:52:15.606Z,18.03
2018-05-14T14:54:43.226Z,20.00
2018-05-14T14:57:10.815Z,17.40
2018-05-14T14:59:38.403Z,19.20
2018-05-14T15:02:06.779Z,18.80
2018-05-14T15:04:35.140Z,21.73
2018-05-14T15:07:02.805Z,22.03
2018-05-14T15:09:30.368Z,23.07
2018-05-14T15:11:58.740Z,22.00
2018-05-14T15:14:26.326Z,20.53
2018-05-14T15:16:54.654Z,22.53
2018-05-14T15:19:22.250Z,20.10
2018-05-14T15:21:49.815Z,22.73
2018-05-14T15:24:18.170Z,19.77
2018-05-14T15:26:45.769Z,19.63
2018-05-14T15:29:14.154Z,19.23
2018-05-14T15:31:41.747Z,17.50
2018-05-14T15:34:09.338Z,16.00
2018-05-14T15:36:36.934Z,15.30
2018-05-14T15:39:05.304Z,16.00
2018-05-14T15:41:33.703Z,15.27
2018-05-14T15:44:01.274Z,15.10
2018-05-14T15:46:28.867Z,15.03
2018-05-14T15:48:56.473Z,16.30
2018-05-14T15:51:24.808Z,14.73
2018-05-14T15:53:52.379Z,15.23
2018-05-14T15:56:20.011Z,16.37
2018-05-14T15:58:47.634Z,16.43
2018-05-14T16:01:15.990Z,15.53
2018-05-14T16:03:43.554Z,16.43
2018-05-14T16:06:11.142Z,17.17
2018-05-14T16:08:39.503Z,12.40
2018-05-14T16:11:07.958Z,12.27
2018-05-14T16:13:35.522Z,11.40
2018-05-14T16:16:03.855Z,12.80
2018-05-14T16:18:31.449Z,12.73
2018-05-14T16:20:59.038Z,13.17
2018-05-14T16:23:27.453Z,14.00
2018-05-14T16:25:55.997Z,14.27
2018-05-14T16:28:24.465Z,18.10
2018-05-14T16:30:52.030Z,18.67
2018-05-14T16:33:19.728Z,16.63
2018-05-14T16:35:47.240Z,16.17
2018-05-14T16:38:14.855Z,13.93
2018-05-14T16:40:42.465Z,10.00
2018-05-14T16:43:10.027Z,8.90
2018-05-14T16:45:37.610Z,8.50
2018-05-14T16:48:05.938Z,9.77
2018-05-14T16:50:33.567Z,12.17
2018-05-14T16:53:01.154Z,13.20
2018-05-14T16:55:28.781Z,13.70
2018-05-14T16:57:57.230Z,15.13
2018-05-14T17:00:24.818Z,14.40
2018-05-14T17:02:58.561Z,15.00
2018-05-14T17:05:27.447Z,15.17
2018-05-14T17:07:55.043Z,14.87
2018-05-14T17:10:23.440Z,14.90
2018-05-14T17:12:51.034Z,14.70
2018-05-14T17:15:18.637Z,13.18
2018-05-14T17:17:46.199Z,9.60
2018-05-14T17:20:13.802Z,10.30
2018-05-14T17:22:41.386Z,9.20
2018-05-14T17:25:08.986Z,8.50
2018-05-14T17:27:36.543Z,8.20
2018-05-14T17:30:04.139Z,7.90
2018-05-14T17:32:31.774Z,7.90
2018-05-14T17:34:59.416Z,8.90
2018-05-14T17:37:27.770Z,9.17
2018-05-14T17:39:55.355Z,8.80
2018-05-14T17:42:22.981Z,8.53
2018-05-14T17:44:50.565Z,7.93
2018-05-14T17:47:18.154Z,8.20
2018-05-14T17:49:45.743Z,10.50
2018-05-14T17:52:14.096Z,9.93
2018-05-14T17:54:41.678Z,9.93
2018-05-14T17:57:10.017Z,12.10
2018-05-14T17:59:37.613Z,11.70
2018-05-14T18:02:05.179Z,13.90
2018-05-14T18:04:33.542Z,11.57
2018-05-14T18:07:01.167Z,15.02
2018-05-14T18:09:28.778Z,16.20
2018-05-14T18:11:57.167Z,14.47
2018-05-14T18:14:25.566Z,14.57
2018-05-14T18:16:53.158Z,16.30
2018-05-14T18:19:20.731Z,15.30
2018-05-14T18:21:48.352Z,16.13
2018-05-14T18:24:15.947Z,17.00
2018-05-14T18:26:46.362Z,16.93
2018-05-14T18:29:19.720Z,17.90
2018-05-14T18:31:52.939Z,14.90
2018-05-14T18:34:20.546Z,17.10
2018-05-14T18:36:48.127Z,17.33
2018-05-14T18:39:15.815Z,17.47
2018-05-14T18:41:43.390Z,17.37
2018-05-14T18:44:14.152Z,20.30
2018-05-14T18:46:41.993Z,17.87
2018-05-14T18:49:10.370Z,17.07
2018-05-14T18:51:37.969Z,19.07
2018-05-14T18:54:05.558Z,18.80
2018-05-14T18:56:33.277Z,21.03
2018-05-14T18:59:01.642Z,18.87
2018-05-14T19:01:29.218Z,19.90
2018-05-14T19:03:57.606Z,19.63
2018-05-14T19:06:25.968Z,19.10
2018-05-14T19:08:54.342Z,21.27
2018-05-14T19:11:27.716Z,18.13
2018-05-14T19:13:56.076Z,19.20
2018-05-14T19:16:29.227Z,20.27
2018-05-14T19:18:56.858Z,20.57
2018-05-14T19:21:25.273Z,20.13
2018-05-14T19:23:53.695Z,21.83
2018-05-14T19:26:22.054Z,21.10
2018-05-14T19:28:55.342Z,22.40
2018-05-14T19:31:22.934Z,21.60
2018-05-14T19:33:56.866Z,21.40
2018-05-14T19:36:25.226Z,22.07
2018-05-14T19:38:52.820Z,21.70
2018-05-14T19:41:20.456Z,22.30
2018-05-14T19:43:48.098Z,25.52
2018-05-14T19:46:15.696Z,22.40
2018-05-14T19:48:43.307Z,22.47
2018-05-14T19:51:10.939Z,22.40
2018-05-14T19:53:38.533Z,22.00
2018-05-14T19:56:06.102Z,23.53
2018-05-14T19:58:33.706Z,22.10
2018-05-14T20:01:01.291Z,23.47
2018-05-14T20:03:29.780Z,22.27
2018-05-14T20:05:57.314Z,22.63
2018-05-14T20:08:24.946Z,24.43
2018-05-14T20:10:52.512Z,22.50
2018-05-14T20:13:20.107Z,23.87
2018-05-14T20:15:48.439Z,23.43
2018-05-14T20:18:16.072Z,22.73
2018-05-14T20:20:43.663Z,22.93
2018-05-14T20:23:11.305Z,23.80
2018-05-14T20:25:38.874Z,23.60
2018-05-14T20:28:06.463Z,23.43
2018-05-14T20:30:34.091Z,22.77
2018-05-14T20:33:01.662Z,23.20
2018-05-14T20:35:29.259Z,23.97
2018-05-14T20:38:00.426Z,24.40
2018-05-14T20:40:28.254Z,24.60
2018-05-14T20:42:55.882Z,24.10
2018-05-14T20:45:23.510Z,25.07
2018-05-14T20:47:51.115Z,23.80
2018-05-14T20:50:19.454Z,26.10
2018-05-14T20:52:47.088Z,24.30
2018-05-14T20:55:15.450Z,24.90
2018-05-14T20:57:43.043Z,24.17
2018-05-14T21:00:10.619Z,25.73
2018-05-14T21:02:39.030Z,25.33
2018-05-14T21:05:06.625Z,25.20
2018-05-14T21:07:34.218Z,27.30
2018-05-14T21:10:01.843Z,25.30
2018-05-14T21:12:30.183Z,27.83
2018-05-14T21:14:57.776Z,25.80
2018-05-14T21:17:26.106Z,26.83
2018-05-14T21:19:54.462Z,26.37
2018-05-14T21:22:22.030Z,26.73
2018-05-14T21:24:49.623Z,29.50
2018-05-14T21:27:17.208Z,27.23
2018-05-14T21:29:44.803Z,27.60
2018-05-14T21:32:12.366Z,29.80
2018-05-14T21:34:40.033Z,29.03
2018-05-14T21:37:07.594Z,28.80
2018-05-14T21:39:35.190Z,28.83
2018-05-14T21:42:02.806Z,28.67
2018-05-14T21:44:30.370Z,29.67
2018-05-14T21:46:57.974Z,29.60
2018-05-14T21:49:25.547Z,28.30
2018-05-14T21:51:53.152Z,27.50
2018-05-14T21:54:20.846Z,28.60
2018-05-14T21:56:48.453Z,27.80
2018-05-14T21:59:16.838Z,26.90
2018-05-14T22:01:45.166Z,26.10
2018-05-14T22:04:12.787Z,25.53
2018-05-14T22:06:40.423Z,24.57
2018-05-14T22:09:08.783Z,23.80
2018-05-14T22:11:36.394Z,21.63
2018-05-14T22:14:03.986Z,20.67
2018-05-14T22:16:31.679Z,19.80
2018-05-14T22:18:59.293Z,18.30
2018-05-14T22:21:26.882Z,16.90
2018-05-14T22:23:54.486Z,15.73
2018-05-14T22:26:22.850Z,15.30
2018-05-14T22:28:50.425Z,15.37
2018-05-14T22:31:18.827Z,13.90
2018-05-14T22:33:46.418Z,13.57
2018-05-14T22:36:14.006Z,13.20
2018-05-14T22:38:41.658Z,11.33
2018-05-14T22:41:09.230Z,11.90
2018-05-14T22:43:36.821Z,11.20
2018-05-14T22:46:05.204Z,11.73
2018-05-14T22:48:32.798Z,10.60
2018-05-14T22:51:00.382Z,11.53
2018-05-14T22:53:27.950Z,10.00
2018-05-14T22:55:55.559Z,8.60
2018-05-14T22:58:23.126Z,8.23
2018-05-14T23:00:50.685Z,7.87
2018-05-14T23:03:18.270Z,7.97
2018-05-14T23:05:45.854Z,7.77
2018-05-14T23:08:13.438Z,8.10
2018-05-14T23:10:41.762Z,7.77
2018-05-14T23:13:09.377Z,8.00
2018-05-14T23:15:37.749Z,7.27
2018-05-14T23:18:05.333Z,7.47
2018-05-14T23:20:32.961Z,7.93
2018-05-14T23:23:00.545Z,6.57
2018-05-14T23:25:28.866Z,7.37
2018-05-14T23:27:56.482Z,7.47
2018-05-14T23:30:24.858Z,7.83
2018-05-14T23:32:53.205Z,7.73
2018-05-14T23:35:20.833Z,7.93
2018-05-14T23:37:48.418Z,7.27
2018-05-14T23:40:16.005Z,7.23
2018-05-14T23:42:43.622Z,7.37
2018-05-14T23:45:11.211Z,7.37
2018-05-14T23:47:38.822Z,7.27
2018-05-14T23:50:06.383Z,7.47
2018-05-14T23:52:34.739Z,7.20
2018-05-14T23:55:02.339Z,8.27
2018-05-14T23:57:30.662Z,6.63
2018-05-14T23:59:58.278Z,7.43
